createdAt,value
2017-10-23T00:01:03.063Z,1.30
2017-10-23T00:03:29.341Z,1.30
2017-10-23T00:05:55.871Z,1.43
2017-10-23T00:08:22.052Z,1.27
2017-10-23T00:10:48.234Z,1.00
2017-10-23T00:13:15.205Z,1.30
2017-10-23T00:15:41.407Z,1.43
2017-10-23T00:18:07.605Z,1.30
2017-10-23T00:20:33.849Z,1.20
2017-10-23T00:23:00.133Z,1.27
2017-10-23T00:25:26.317Z,1.10
2017-10-23T00:27:52.645Z,1.37
2017-10-23T00:30:18.835Z,1.23
2017-10-23T00:32:45.013Z,1.50
2017-10-23T00:35:11.329Z,1.13
2017-10-23T00:37:37.522Z,1.10
2017-10-23T00:40:03.728Z,1.10
2017-10-23T00:42:29.989Z,1.20
2017-10-23T00:44:56.166Z,1.20
2017-10-23T00:47:22.345Z,1.10
2017-10-23T00:49:49.240Z,1.20
2017-10-23T00:52:15.488Z,1.33
2017-10-23T00:54:41.700Z,1.30
2017-10-23T00:57:08.477Z,1.10
2017-10-23T00:59:34.743Z,1.20
2017-10-23T01:02:00.978Z,1.30
2017-10-23T01:04:27.234Z,1.60
2017-10-23T01:06:53.760Z,1.27
2017-10-23T01:09:19.932Z,1.13
2017-10-23T01:11:46.266Z,1.30
2017-10-23T01:14:12.465Z,1.20
2017-10-23T01:16:38.980Z,1.40
2017-10-23T01:19:05.253Z,1.40
2017-10-23T01:21:31.514Z,1.10
2017-10-23T01:23:57.738Z,1.20
2017-10-23T01:26:24.053Z,1.20
2017-10-23T01:28:50.244Z,1.10
2017-10-23T01:31:16.452Z,1.27
2017-10-23T01:33:42.907Z,1.30
2017-10-23T01:36:09.571Z,1.10
2017-10-23T01:38:35.778Z,1.10
2017-10-23T01:41:01.990Z,1.10
2017-10-23T01:43:28.313Z,1.30
2017-10-23T01:45:54.497Z,1.37
2017-10-23T01:48:20.979Z,1.20
2017-10-23T01:50:47.812Z,1.20
2017-10-23T01:53:14.000Z,1.37
2017-10-23T01:55:40.178Z,1.20
2017-10-23T01:58:06.700Z,1.47
2017-10-23T02:00:33.237Z,1.27
2017-10-23T02:02:59.452Z,1.30
2017-10-23T02:05:26.049Z,1.17
2017-10-23T02:07:52.229Z,1.40
2017-10-23T02:10:18.416Z,1.10
2017-10-23T02:12:44.668Z,0.90
2017-10-23T02:15:10.853Z,1.00
2017-10-23T02:17:37.042Z,1.20
2017-10-23T02:20:04.390Z,1.17
2017-10-23T02:22:30.590Z,1.03
2017-10-23T02:24:56.772Z,1.00
2017-10-23T02:27:23.088Z,1.30
2017-10-23T02:29:49.257Z,1.10
2017-10-23T02:32:15.737Z,1.10
2017-10-23T02:34:41.949Z,1.43
2017-10-23T02:37:08.151Z,1.20
2017-10-23T02:39:34.321Z,1.30
2017-10-23T02:42:00.577Z,1.20
2017-10-23T02:44:26.753Z,1.10
2017-10-23T02:46:52.960Z,1.40
2017-10-23T02:49:19.584Z,1.10
2017-10-23T02:51:45.770Z,0.90
2017-10-23T02:54:11.956Z,1.07
2017-10-23T02:56:38.565Z,1.30
2017-10-23T02:59:04.751Z,1.30
2017-10-23T03:01:30.943Z,1.20
2017-10-23T03:03:57.418Z,1.30
2017-10-23T03:06:23.638Z,1.20
2017-10-23T03:08:49.906Z,1.13
2017-10-23T03:11:16.411Z,1.20
2017-10-23T03:13:42.949Z,1.20
2017-10-23T03:16:09.572Z,1.40
2017-10-23T03:18:35.772Z,1.20
2017-10-23T03:21:01.978Z,1.00
2017-10-23T03:23:28.576Z,1.40
2017-10-23T03:25:54.767Z,1.20
2017-10-23T03:28:27.383Z,1.00
2017-10-23T03:30:53.640Z,1.23
2017-10-23T03:33:19.848Z,1.10
2017-10-23T03:35:46.042Z,1.30
2017-10-23T03:38:12.365Z,1.40
2017-10-23T03:40:38.576Z,1.00
2017-10-23T03:43:04.773Z,1.40
2017-10-23T03:45:31.325Z,1.20
2017-10-23T03:47:57.529Z,1.20
2017-10-23T03:50:23.712Z,1.37
2017-10-23T03:52:49.953Z,1.20
2017-10-23T03:55:16.153Z,1.20
2017-10-23T03:57:42.349Z,1.10
2017-10-23T04:00:08.629Z,0.97
2017-10-23T04:02:34.836Z,1.10
2017-10-23T04:05:01.084Z,1.10
2017-10-23T04:07:27.393Z,1.40
2017-10-23T04:09:53.977Z,1.30
2017-10-23T04:12:20.226Z,1.17
2017-10-23T04:14:46.546Z,1.00
2017-10-23T04:17:13.072Z,1.40
2017-10-23T04:19:39.315Z,1.40
2017-10-23T04:22:05.653Z,1.20
2017-10-23T04:24:31.896Z,1.10
2017-10-23T04:26:58.393Z,1.40
2017-10-23T04:29:24.738Z,1.20
2017-10-23T04:31:50.920Z,1.00
2017-10-23T04:34:17.127Z,1.10
2017-10-23T04:36:43.371Z,1.10
2017-10-23T04:39:09.557Z,1.23
2017-10-23T04:41:35.774Z,1.10
2017-10-23T04:44:02.297Z,1.50
2017-10-23T04:46:28.501Z,1.23
2017-10-23T04:48:54.704Z,1.30
2017-10-23T04:51:21.597Z,1.20
2017-10-23T04:53:47.845Z,1.40
2017-10-23T04:56:14.037Z,1.23
2017-10-23T04:58:40.300Z,1.40
2017-10-23T05:01:06.916Z,1.10
2017-10-23T05:03:33.087Z,1.17
2017-10-23T05:05:59.685Z,1.20
2017-10-23T05:08:25.877Z,1.30
2017-10-23T05:10:52.101Z,1.23
2017-10-23T05:13:18.365Z,1.10
2017-10-23T05:15:44.527Z,1.40
2017-10-23T05:18:10.712Z,1.20
2017-10-23T05:20:37.506Z,1.17
2017-10-23T05:23:03.997Z,1.23
2017-10-23T05:25:30.534Z,1.20
2017-10-23T05:27:56.868Z,1.30
2017-10-23T05:30:23.113Z,1.20
2017-10-23T05:32:49.341Z,1.10
2017-10-23T05:35:15.957Z,1.50
2017-10-23T05:37:42.157Z,1.30
2017-10-23T05:40:08.352Z,1.20
2017-10-23T05:42:34.606Z,1.30
2017-10-23T05:45:00.839Z,1.07
2017-10-23T05:47:27.301Z,1.43
2017-10-23T05:49:53.541Z,1.20
2017-10-23T05:52:20.065Z,1.40
2017-10-23T05:54:46.296Z,1.20
2017-10-23T05:57:12.622Z,1.20
2017-10-23T05:59:38.859Z,1.00
2017-10-23T06:02:05.067Z,1.10
2017-10-23T06:04:31.325Z,1.33
2017-10-23T06:06:57.730Z,1.30
2017-10-23T06:09:23.969Z,1.10
2017-10-23T06:11:50.315Z,1.30
2017-10-23T06:14:16.554Z,1.33
2017-10-23T06:16:42.766Z,1.37
2017-10-23T06:19:09.083Z,1.57
2017-10-23T06:21:35.325Z,1.40
2017-10-23T06:24:01.571Z,1.93
2017-10-23T06:26:28.190Z,1.73
2017-10-23T06:28:54.436Z,1.20
2017-10-23T06:31:20.902Z,1.40
2017-10-23T06:33:47.333Z,1.27
2017-10-23T06:36:13.581Z,1.30
2017-10-23T06:38:39.900Z,1.10
2017-10-23T06:41:06.159Z,1.40
2017-10-23T06:43:32.362Z,1.50
2017-10-23T06:45:58.826Z,1.60
2017-10-23T06:48:25.389Z,1.83
2017-10-23T06:50:51.611Z,1.53
2017-10-23T06:53:17.849Z,1.50
2017-10-23T06:55:44.865Z,1.57
2017-10-23T06:58:11.130Z,1.50
2017-10-23T07:00:37.447Z,1.77
2017-10-23T07:03:04.130Z,1.87
2017-10-23T07:05:30.584Z,1.20
2017-10-23T07:07:56.911Z,1.50
2017-10-23T07:10:23.211Z,1.60
2017-10-23T07:12:49.506Z,1.50
2017-10-23T07:15:15.716Z,1.57
2017-10-23T07:17:41.978Z,1.50
2017-10-23T07:20:08.191Z,1.47
2017-10-23T07:22:34.376Z,1.43
2017-10-23T07:25:00.666Z,1.30
2017-10-23T07:27:26.862Z,1.40
2017-10-23T07:29:53.060Z,1.50
2017-10-23T07:32:19.406Z,1.53
2017-10-23T07:34:45.602Z,1.53
2017-10-23T07:37:11.805Z,1.80
2017-10-23T07:39:38.710Z,2.10
2017-10-23T07:42:04.914Z,1.40
2017-10-23T07:44:31.126Z,1.80
2017-10-23T07:46:57.468Z,1.43
2017-10-23T07:49:23.669Z,1.30
2017-10-23T07:51:49.853Z,1.57
2017-10-23T07:54:16.350Z,1.63
2017-10-23T07:56:42.551Z,1.80
2017-10-23T07:59:08.746Z,1.80
2017-10-23T08:01:35.003Z,1.60
2017-10-23T08:04:01.202Z,1.40
2017-10-23T08:06:27.735Z,1.50
2017-10-23T08:08:54.139Z,1.40
2017-10-23T08:11:20.332Z,2.07
2017-10-23T08:13:46.517Z,1.87
2017-10-23T08:16:12.776Z,2.13
2017-10-23T08:18:38.963Z,1.40
2017-10-23T08:21:05.155Z,1.30
2017-10-23T08:23:31.791Z,2.27
2017-10-23T08:25:58.226Z,1.87
2017-10-23T08:28:24.564Z,1.37
2017-10-23T08:30:51.196Z,1.57
2017-10-23T08:33:17.398Z,1.73
2017-10-23T08:35:43.905Z,1.70
2017-10-23T08:38:10.233Z,1.47
2017-10-23T08:40:36.834Z,1.80
2017-10-23T08:43:03.032Z,1.67
2017-10-23T08:45:29.357Z,1.50
2017-10-23T08:47:55.554Z,1.60
2017-10-23T08:50:21.770Z,2.70
2017-10-23T08:52:48.372Z,2.03
2017-10-23T08:55:14.854Z,1.40
2017-10-23T08:57:41.065Z,1.93
2017-10-23T09:00:07.408Z,1.67
2017-10-23T09:02:33.631Z,1.77
2017-10-23T09:05:00.077Z,1.40
2017-10-23T09:07:27.216Z,1.70
2017-10-23T09:09:53.339Z,1.93
2017-10-23T09:12:19.564Z,1.60
2017-10-23T09:14:46.010Z,2.10
2017-10-23T09:17:12.364Z,1.83
2017-10-23T09:19:38.548Z,1.80
2017-10-23T09:22:04.778Z,1.60
2017-10-23T09:24:31.638Z,2.10
2017-10-23T09:26:57.824Z,1.80
2017-10-23T09:29:24.302Z,1.60
2017-10-23T09:31:50.737Z,1.60
2017-10-23T09:34:16.926Z,1.80
2017-10-23T09:36:43.156Z,1.70
2017-10-23T09:39:09.412Z,1.80
2017-10-23T09:41:35.958Z,2.03
2017-10-23T09:44:02.151Z,1.93
2017-10-23T09:46:28.492Z,1.60
2017-10-23T09:48:54.701Z,1.50
2017-10-23T09:51:21.175Z,1.50
2017-10-23T09:53:47.517Z,1.73
2017-10-23T09:56:14.037Z,2.00
2017-10-23T09:58:40.241Z,1.87
2017-10-23T10:01:06.678Z,1.97
2017-10-23T10:03:32.862Z,1.40
2017-10-23T10:05:59.038Z,1.47
2017-10-23T10:08:25.694Z,1.77
2017-10-23T10:10:51.891Z,1.53
2017-10-23T10:13:18.271Z,2.10
2017-10-23T10:15:44.600Z,1.80
2017-10-23T10:18:11.018Z,1.57
2017-10-23T10:20:37.211Z,1.60
2017-10-23T10:23:03.831Z,1.50
2017-10-23T10:25:30.288Z,1.80
2017-10-23T10:27:56.495Z,2.10
2017-10-23T10:30:22.782Z,1.67
2017-10-23T10:32:49.000Z,1.47
2017-10-23T10:35:15.319Z,1.70
2017-10-23T10:37:41.575Z,1.97
2017-10-23T10:40:07.779Z,1.90
2017-10-23T10:42:34.325Z,2.10
2017-10-23T10:45:01.005Z,1.77
2017-10-23T10:47:27.207Z,1.47
2017-10-23T10:49:53.404Z,1.60
2017-10-23T10:52:19.752Z,1.60
2017-10-23T10:54:45.971Z,1.70
2017-10-23T10:57:12.406Z,2.00
2017-10-23T10:59:39.358Z,1.67
2017-10-23T11:02:05.561Z,1.60
2017-10-23T11:04:31.763Z,1.70
2017-10-23T11:06:58.080Z,1.53
2017-10-23T11:09:24.265Z,2.00
2017-10-23T11:11:50.457Z,1.73
2017-10-23T11:14:17.069Z,1.97
2017-10-23T11:16:43.273Z,1.90
2017-10-23T11:19:09.471Z,1.63
2017-10-23T11:21:35.738Z,1.73
2017-10-23T11:24:01.933Z,1.57
2017-10-23T11:26:28.143Z,1.73
2017-10-23T11:28:54.489Z,1.90
2017-10-23T11:31:20.912Z,1.53
2017-10-23T11:33:47.111Z,1.70
2017-10-23T11:36:13.357Z,1.77
2017-10-23T11:38:39.535Z,2.23
2017-10-23T11:41:05.769Z,1.90
2017-10-23T11:43:31.970Z,1.87
2017-10-23T11:45:58.167Z,1.70
2017-10-23T11:48:24.410Z,1.67
2017-10-23T11:50:50.607Z,1.77
2017-10-23T11:53:17.087Z,1.40
2017-10-23T11:55:43.769Z,1.60
2017-10-23T11:58:09.969Z,1.93
2017-10-23T12:00:36.182Z,1.50
2017-10-23T12:03:02.716Z,1.50
2017-10-23T12:05:28.907Z,1.93
2017-10-23T12:07:55.090Z,1.40
2017-10-23T12:10:21.602Z,1.60
2017-10-23T12:12:47.906Z,1.47
2017-10-23T12:15:14.106Z,1.33
2017-10-23T12:17:40.798Z,1.70
2017-10-23T12:20:07.334Z,1.63
2017-10-23T12:22:33.872Z,1.50
2017-10-23T12:25:00.374Z,2.03
2017-10-23T12:27:26.581Z,1.50
2017-10-23T12:29:53.033Z,1.57
2017-10-23T12:32:19.295Z,1.63
2017-10-23T12:34:45.532Z,1.40
2017-10-23T12:37:11.720Z,1.50
2017-10-23T12:39:38.746Z,2.00
2017-10-23T12:42:04.928Z,1.80
2017-10-23T12:44:31.121Z,1.17
2017-10-23T12:46:57.398Z,2.03
2017-10-23T12:49:23.610Z,1.63
2017-10-23T12:51:49.801Z,1.77
2017-10-23T12:54:16.142Z,1.60
2017-10-23T12:56:42.360Z,1.50
2017-10-23T12:59:08.549Z,1.30
2017-10-23T13:01:35.158Z,1.63
2017-10-23T13:04:01.361Z,2.13
2017-10-23T13:06:27.548Z,1.30
2017-10-23T13:08:53.791Z,1.37
2017-10-23T13:11:19.987Z,1.53
2017-10-23T13:13:46.278Z,1.70
2017-10-23T13:16:12.543Z,1.80
2017-10-23T13:18:38.747Z,1.37
2017-10-23T13:21:04.943Z,1.40
2017-10-23T13:23:31.282Z,1.40
2017-10-23T13:25:57.488Z,1.53
2017-10-23T13:28:23.912Z,1.60
2017-10-23T13:30:50.250Z,1.40
2017-10-23T13:33:16.447Z,1.70
2017-10-23T13:35:42.643Z,1.30
2017-10-23T13:38:09.070Z,2.10
2017-10-23T13:40:35.289Z,1.43
2017-10-23T13:43:01.470Z,1.50
2017-10-23T13:45:27.761Z,1.90
2017-10-23T13:47:53.950Z,1.67
2017-10-23T13:50:20.156Z,1.70
2017-10-23T13:52:46.429Z,1.70
2017-10-23T13:55:12.604Z,1.57
2017-10-23T13:57:39.225Z,1.40
2017-10-23T14:00:05.763Z,1.70
2017-10-23T14:02:31.971Z,1.50
2017-10-23T14:04:58.221Z,1.93
2017-10-23T14:07:24.561Z,1.70
2017-10-23T14:09:50.757Z,1.53
2017-10-23T14:12:16.967Z,1.40
2017-10-23T14:14:43.589Z,1.37
2017-10-23T14:17:09.786Z,1.67
2017-10-23T14:19:36.069Z,1.63
2017-10-23T14:22:02.384Z,1.50
2017-10-23T14:24:28.688Z,1.60
2017-10-23T14:26:54.937Z,1.60
2017-10-23T14:29:21.534Z,1.27
2017-10-23T14:31:47.774Z,1.43
2017-10-23T14:34:14.032Z,1.57
2017-10-23T14:36:40.458Z,1.60
2017-10-23T14:39:06.760Z,1.53
2017-10-23T14:41:33.277Z,2.37
2017-10-23T14:43:59.609Z,1.90
2017-10-23T14:46:25.818Z,1.37
2017-10-23T14:48:52.373Z,1.10
2017-10-23T14:51:18.643Z,1.60
2017-10-23T14:53:44.946Z,1.40
2017-10-23T14:56:11.166Z,1.43
2017-10-23T14:58:37.434Z,1.57
2017-10-23T15:01:03.918Z,1.63
2017-10-23T15:03:30.138Z,1.50
2017-10-23T15:05:56.399Z,1.60
2017-10-23T15:08:22.626Z,2.10
2017-10-23T15:10:48.842Z,1.50
2017-10-23T15:13:15.110Z,1.30
2017-10-23T15:15:41.381Z,1.40
2017-10-23T15:18:07.573Z,1.80
2017-10-23T15:20:34.205Z,1.53
2017-10-23T15:23:00.390Z,1.80
2017-10-23T15:25:26.612Z,1.50
2017-10-23T15:27:53.032Z,1.43
2017-10-23T15:30:19.230Z,1.50
2017-10-23T15:32:45.425Z,2.00
2017-10-23T15:35:11.678Z,1.40
2017-10-23T15:37:37.891Z,1.10
2017-10-23T15:40:04.096Z,1.30
2017-10-23T15:42:30.411Z,1.63
2017-10-23T15:44:56.613Z,1.70
2017-10-23T15:47:22.799Z,1.60
2017-10-23T15:49:49.121Z,1.50
2017-10-23T15:52:15.309Z,1.40
2017-10-23T15:54:41.760Z,1.63
2017-10-23T15:57:08.140Z,1.47
2017-10-23T15:59:34.353Z,1.30
2017-10-23T16:02:00.849Z,1.53
2017-10-23T16:04:27.384Z,1.63
2017-10-23T16:06:53.588Z,1.57
2017-10-23T16:09:19.777Z,1.50
2017-10-23T16:11:46.026Z,1.60
2017-10-23T16:14:12.229Z,1.40
2017-10-23T16:16:38.461Z,1.43
2017-10-23T16:19:04.787Z,1.47
2017-10-23T16:21:31.001Z,1.30
2017-10-23T16:23:57.212Z,1.63
2017-10-23T16:26:24.056Z,1.57
2017-10-23T16:28:50.596Z,1.57
2017-10-23T16:31:16.809Z,1.40
2017-10-23T16:33:43.415Z,1.60
2017-10-23T16:36:09.612Z,1.40
2017-10-23T16:38:35.829Z,1.40
2017-10-23T16:41:02.495Z,1.33
2017-10-23T16:43:28.692Z,1.30
2017-10-23T16:45:54.897Z,1.40
2017-10-23T16:48:21.159Z,2.07
2017-10-23T16:50:47.357Z,1.53
2017-10-23T16:53:13.560Z,1.50
2017-10-23T16:55:39.820Z,1.50
2017-10-23T16:58:06.020Z,1.50
2017-10-23T17:00:32.258Z,1.87
2017-10-23T17:02:58.495Z,1.30
2017-10-23T17:05:24.687Z,1.20
2017-10-23T17:07:50.873Z,1.63
2017-10-23T17:10:17.214Z,1.63
2017-10-23T17:12:43.419Z,1.43
2017-10-23T17:15:09.603Z,1.50
2017-10-23T17:17:36.038Z,1.40
2017-10-23T17:20:02.255Z,1.30
2017-10-23T17:22:28.523Z,1.27
2017-10-23T17:24:54.852Z,1.70
2017-10-23T17:27:21.033Z,1.40
2017-10-23T17:29:47.213Z,1.40
2017-10-23T17:32:13.544Z,1.63
2017-10-23T17:34:40.078Z,1.50
2017-10-23T17:37:06.259Z,1.50
2017-10-23T17:39:32.841Z,2.07
2017-10-23T17:41:59.026Z,1.40
2017-10-23T17:44:25.506Z,1.57
2017-10-23T17:46:51.856Z,1.47
2017-10-23T17:49:18.067Z,1.40
2017-10-23T17:51:44.266Z,1.80
2017-10-23T17:54:11.136Z,1.50
2017-10-23T17:56:37.331Z,1.90
2017-10-23T17:59:03.757Z,1.60
2017-10-23T18:01:30.032Z,1.30
2017-10-23T18:03:56.219Z,1.47
2017-10-23T18:06:22.404Z,1.40
2017-10-23T18:08:48.965Z,1.40
2017-10-23T18:11:15.174Z,1.47
2017-10-23T18:13:41.380Z,1.60
2017-10-23T18:16:07.902Z,1.47
2017-10-23T18:18:34.370Z,1.53
2017-10-23T18:21:00.568Z,1.43
2017-10-23T18:23:26.772Z,1.43
2017-10-23T18:25:53.059Z,2.00
2017-10-23T18:28:19.255Z,1.70
2017-10-23T18:30:45.685Z,1.43
2017-10-23T18:33:11.951Z,1.50
2017-10-23T18:35:38.154Z,1.33
2017-10-23T18:38:04.347Z,1.30
2017-10-23T18:40:30.642Z,1.30
2017-10-23T18:42:56.840Z,1.33
2017-10-23T18:45:23.035Z,1.70
2017-10-23T18:47:49.310Z,1.47
2017-10-23T18:50:15.498Z,1.40
2017-10-23T18:52:41.718Z,1.37
2017-10-23T18:55:08.067Z,1.60
2017-10-23T19:00:25.141Z,1.30
2017-10-23T19:02:51.335Z,1.27
2017-10-23T19:05:17.537Z,1.60
2017-10-23T19:07:43.786Z,1.70
2017-10-23T19:10:10.029Z,1.47
2017-10-23T19:12:36.545Z,1.90
2017-10-23T19:15:02.857Z,2.00
2017-10-23T19:17:29.302Z,2.80
2017-10-23T19:19:55.522Z,2.40
2017-10-23T19:22:22.116Z,2.33
2017-10-23T19:24:48.563Z,2.40
2017-10-23T19:27:15.001Z,3.13
2017-10-23T19:29:41.257Z,1.80
2017-10-23T19:32:07.471Z,2.43
2017-10-23T19:34:33.670Z,2.23
2017-10-23T19:37:00.241Z,1.73
2017-10-23T19:39:26.437Z,1.97
2017-10-23T19:41:52.763Z,2.30
2017-10-23T19:44:19.009Z,2.17
2017-10-23T19:46:45.464Z,1.83
2017-10-23T19:49:11.646Z,2.03
2017-10-23T19:51:37.863Z,2.03
2017-10-23T19:54:04.147Z,2.70
2017-10-23T19:56:30.338Z,1.93
2017-10-23T19:58:56.670Z,2.07
2017-10-23T20:01:22.870Z,2.10
2017-10-23T20:03:49.158Z,2.00
2017-10-23T20:06:15.513Z,2.10
2017-10-23T20:08:41.757Z,1.53
2017-10-23T20:11:07.954Z,1.93
2017-10-23T20:13:34.280Z,2.07
2017-10-23T20:16:00.505Z,1.77
2017-10-23T20:18:26.713Z,2.10
2017-10-23T20:20:53.064Z,1.77
2017-10-23T20:23:19.509Z,3.40
2017-10-23T20:25:45.749Z,1.80
2017-10-23T20:28:12.101Z,1.80
2017-10-23T20:30:38.296Z,2.93
2017-10-23T20:33:04.505Z,2.43
2017-10-23T20:35:30.751Z,1.77
2017-10-23T20:37:56.949Z,1.80
2017-10-23T20:40:23.390Z,1.87
2017-10-23T20:42:50.009Z,1.70
2017-10-23T20:45:16.209Z,1.60
2017-10-23T20:47:42.398Z,2.60
2017-10-23T20:50:08.666Z,1.60
2017-10-23T20:52:34.867Z,1.83
2017-10-23T20:55:01.059Z,1.60
2017-10-23T20:57:27.780Z,1.63
2017-10-23T20:59:53.975Z,1.80
2017-10-23T21:02:20.167Z,1.93
2017-10-23T21:04:46.743Z,3.10
2017-10-23T21:07:12.947Z,1.93
2017-10-23T21:09:39.403Z,2.50
2017-10-23T21:12:05.643Z,1.97
2017-10-23T21:14:31.845Z,2.20
2017-10-23T21:16:58.057Z,1.90
2017-10-23T21:19:24.626Z,1.63
2017-10-23T21:21:51.233Z,1.80
2017-10-23T21:24:17.533Z,1.97
2017-10-23T21:26:44.212Z,1.70
2017-10-23T21:29:10.411Z,2.37
2017-10-23T21:31:36.849Z,2.40
2017-10-23T21:34:03.170Z,3.70
2017-10-23T21:36:29.375Z,1.93
2017-10-23T21:38:55.593Z,2.23
2017-10-23T21:41:21.954Z,2.57
2017-10-23T21:43:48.173Z,2.40
2017-10-23T21:46:14.711Z,2.70
2017-10-23T21:48:41.218Z,1.97
2017-10-23T21:51:07.392Z,2.30
2017-10-23T21:53:33.612Z,2.13
2017-10-23T21:55:59.947Z,2.10
2017-10-23T21:58:26.151Z,2.00
2017-10-23T22:00:52.673Z,1.90
2017-10-23T22:03:18.905Z,2.10
2017-10-23T22:05:45.099Z,1.80
2017-10-23T22:08:11.288Z,1.70
2017-10-23T22:10:37.657Z,1.87
2017-10-23T22:13:04.110Z,2.30
2017-10-23T22:15:30.312Z,1.70
2017-10-23T22:17:56.845Z,1.77
2017-10-23T22:20:23.052Z,2.00
2017-10-23T22:22:49.379Z,1.73
2017-10-23T22:25:15.699Z,1.90
2017-10-23T22:27:41.905Z,2.13
2017-10-23T22:30:08.105Z,1.80
2017-10-23T22:32:34.366Z,1.60
2017-10-23T22:35:00.574Z,1.90
2017-10-23T22:37:27.008Z,2.10
2017-10-23T22:39:53.252Z,1.83
2017-10-23T22:42:19.550Z,1.73
2017-10-23T22:44:45.758Z,1.90
2017-10-23T22:47:11.980Z,2.00
2017-10-23T22:49:38.352Z,1.60
2017-10-23T22:52:04.553Z,1.60
2017-10-23T22:54:30.749Z,1.93
2017-10-23T22:56:56.999Z,1.60
2017-10-23T22:59:23.196Z,1.73
2017-10-23T23:01:49.670Z,3.23
2017-10-23T23:04:16.375Z,2.10
2017-10-23T23:06:42.616Z,1.50
2017-10-23T23:09:08.859Z,1.73
2017-10-23T23:11:35.195Z,1.77
2017-10-23T23:14:01.392Z,1.77
2017-10-23T23:16:27.586Z,1.87
2017-10-23T23:18:54.096Z,1.80
2017-10-23T23:21:20.536Z,1.73
2017-10-23T23:23:46.937Z,2.07
2017-10-23T23:26:13.621Z,2.10
2017-10-23T23:28:39.840Z,2.57
2017-10-23T23:31:06.046Z,2.70
2017-10-23T23:33:32.379Z,1.80
2017-10-23T23:35:58.572Z,2.00
2017-10-23T23:38:24.782Z,1.80
2017-10-23T23:40:51.266Z,2.40
2017-10-23T23:43:17.456Z,1.87
2017-10-23T23:45:43.637Z,1.47
2017-10-23T23:48:09.971Z,1.60
2017-10-23T23:50:36.484Z,1.77
2017-10-23T23:53:02.700Z,1.90
2017-10-23T23:55:28.961Z,1.93
2017-10-23T23:57:55.187Z,1.70
